Flight Track Log - Related Links

Times and Time Zones

All times are in EDT time to prevent confusion due to time zone crossing. See the EJA829P flight status page for this flight to view local times or setup timezone preferences in your user account.

Time Position Orientation Groundspeed Altitude Reporting Facility
EDT Latitude Longitude Course Direction KTS MPH feet Rate Location/Type
Sat 05:36:34 PM 32.7500 -117.2167 301° West 195 224 1,800  Level Southern California TRACON
Sat 05:37:44 PM 32.7872 -117.2892 301° West 231 266 6,900 4,136 Climbing Los Angeles Center
Sat 05:38:46 PM 32.8300 -117.3672 303° West 272 313 10,900 3,044 Climbing Los Angeles Center
Sat 05:40:00 PM 32.8781 -117.4478 305° West 294 338 13,800 2,496 Climbing Los Angeles Center
Sat 05:41:03 PM 32.9678 -117.5317 322° Northwest 347 399 16,600 2,496 Climbing Los Angeles Center
Sat 05:42:05 PM 33.0403 -117.6156 316° Northwest 364 419 19,000 2,177 Climbing Los Angeles Center
Sat 05:43:07 PM 33.1022 -117.7164 306° West 374 430 21,100 2,081 Climbing Los Angeles Center
Sat 05:44:09 PM 33.2069 -117.8031 325° Northwest 399 459 23,300 1,935 Climbing Los Angeles Center
Sat 05:45:11 PM 33.3008 -117.8650 331° Northwest 389 448 25,100 1,597 Climbing Los Angeles Center
Sat 05:46:13 PM 33.3967 -117.9269 332° Northwest 392 451 26,600 1,355 Climbing Los Angeles Center
Sat 05:47:15 PM 33.4944 -117.9906 332° Northwest 399 459 27,900 1,161 Climbing Los Angeles Center
Sat 05:48:17 PM 33.5944 -118.0558 331° Northwest 408 470 29,000 1,065 Climbing Los Angeles Center
Sat 05:49:19 PM 33.6944 -118.1192 332° Northwest 411 473 30,100 1,171 Climbing Los Angeles Center
Sat 05:50:20 PM 33.8147 -118.1986 331° Northwest 418 481 31,400 1,171 Climbing Los Angeles Center
Sat 05:51:22 PM 33.9142 -118.2656 331° Northwest 420 483 32,500 1,065 Climbing Los Angeles Center
Sat 05:52:24 PM 34.0239 -118.3014 345° North 421 484 33,600 968 Climbing Los Angeles Center
Sat 05:53:26 PM 34.1133 -118.3144 353° North 414 476 34,500 1,161 Climbing Los Angeles Center
Sat 05:54:28 PM 34.2500 -118.4081 330° Northwest 404 465 36,000 726 Climbing Los Angeles Center
Sat 05:55:30 PM 34.3631 -118.4492 343° North 423 487 36,000  Level Los Angeles Center
Sat 05:56:32 PM 34.4786 -118.4906 344° North 433 498 36,000  Level Los Angeles Center
Sat 05:57:34 PM 34.5944 -118.5328 343° North 436 502 36,000 -194 Level Los Angeles Center
Sat 05:58:36 PM 34.7106 -118.5750 343° North 436 502 35,600 -919 Descending Los Angeles Center
Sat 05:59:38 PM 34.8217 -118.6158 343° North 423 487 34,100 -1,452 Descending Los Angeles Center
Sat 06:00:40 PM 34.9306 -118.6553 343° North 400 460 32,600 -1,512 Descending Los Angeles Center
Sat 06:01:41 PM 35.0581 -118.7028 343° North 402 463 31,000 -1,512 Descending Los Angeles Center
Sat 06:02:43 PM 35.1661 -118.7417 344° North 406 467 29,500 -1,597 Descending Los Angeles Center
Sat 06:03:45 PM 35.2542 -118.7742 343° North 412 474 27,700 -2,177 Descending Los Angeles Center
Sat 06:04:47 PM 35.3883 -118.8242 343° North 421 484 25,000 -2,371 Descending Los Angeles Center
Sat 06:05:49 PM 35.4942 -118.8628 343° North 405 466 22,800 -2,081 Descending Los Angeles Center
Sat 06:06:51 PM 35.5953 -118.9008 343° North 387 445 20,700 -2,244 Descending Los Angeles Center
Sat 06:07:52 PM 35.7133 -118.9458 343° North 376 433 18,200 -2,293 Descending Los Angeles Center
Sat 06:08:54 PM 35.8125 -118.9836 343° North 375 432 16,000 -1,935 Descending Los Angeles Center
Sat 06:09:56 PM 35.9078 -119.0203 343° North 368 423 14,200 -968 Descending Los Angeles Center
Sat 06:10:58 PM 35.9964 -119.0625 339° North 352 405 14,000 -99 Descending Los Angeles Center
Sat 06:11:57 PM 36.0864 -119.1028 340° North 354 407 14,000 -50 Level Oakland Center
Sat 06:12:58 PM 36.1781 -119.1464 339° North 355 409 13,900 -787 Descending Oakland Center
Sat 06:13:59 PM 36.2667 -119.1903 338° Northwest 344 396 12,400 -1,525 Descending Oakland Center
Sat 06:15:00 PM 36.3519 -119.2308 339° North 332 382 10,800 -1,659 Descending Oakland Center
Sat 06:16:02 PM 36.4303 -119.2689 339° North 303 349 9,000 -1,951 Descending Oakland Center
Sat 06:17:03 PM 36.5147 -119.3078 340° North 270 311 6,800 -2,066 Descending Oakland Center
Sat 06:18:04 PM 36.5717 -119.3606 323° Northwest 262 302 4,800 -1,377 Descending Oakland Center
Sat 06:19:05 PM 36.6117 -119.4292 306° West 247 284 4,000 -393 Descending Oakland Center
Sat 06:20:06 PM 36.6486 -119.4928 306° West 232 267 4,000 -344 Level Oakland Center
Sat 06:21:07 PM 36.6836 -119.5539 306° West 221 254 3,300 -984 Descending Oakland Center
Sat 06:22:08 PM 36.7200 -119.6178 305° West 211 243 2,000 -1,033 Descending Oakland Center
Sat 06:23:09 PM 36.7447 -119.6614 305° West 165 190 1,200 -732 Descending Oakland Center
Sat 06:24:11 PM 36.7653 -119.6969 306° West 124 143 500 -677 Descending Oakland Center
Sat 06:26:00 PM 36.7667 -119.7167 297° West  Level FlightAware Approximate
Sat 06:33:00 PM 36.7766 -119.7188 297° West  Level Estimated

Login

Don't have an account? Register now (free) for customized features, flight alerts, and more!